sensor_id;sensor_type;location;lat;lon;timestamp;temperature;humidity
11497;DHT22;5805;51.542;7.230;2023-07-28T00:01:07;19.40;99.90
11497;DHT22;5805;51.542;7.230;2023-07-28T00:03:33;19.40;99.90
11497;DHT22;5805;51.542;7.230;2023-07-28T00:05:58;19.40;99.90
11497;DHT22;5805;51.542;7.230;2023-07-28T00:08:24;19.40;99.90
11497;DHT22;5805;51.542;7.230;2023-07-28T00:10:49;19.40;99.90
11497;DHT22;5805;51.542;7.230;2023-07-28T00:13:15;19.40;99.90
11497;DHT22;5805;51.542;7.230;2023-07-28T00:15:41;19.50;99.90
11497;DHT22;5805;51.542;7.230;2023-07-28T00:18:08;19.40;99.90
11497;DHT22;5805;51.542;7.230;2023-07-28T00:20:33;19.40;99.90
11497;DHT22;5805;51.542;7.230;2023-07-28T00:22:59;19.40;99.90
11497;DHT22;5805;51.542;7.230;2023-07-28T00:25:25;19.40;99.90
11497;DHT22;5805;51.542;7.230;2023-07-28T00:27:50;19.50;99.90
11497;DHT22;5805;51.542;7.230;2023-07-28T00:30:16;19.40;99.90
11497;DHT22;5805;51.542;7.230;2023-07-28T00:32:42;19.40;99.90
11497;DHT22;5805;51.542;7.230;2023-07-28T00:35:09;19.40;99.90
11497;DHT22;5805;51.542;7.230;2023-07-28T00:37:35;19.40;99.90
11497;DHT22;5805;51.542;7.230;2023-07-28T00:40:00;19.40;99.90
11497;DHT22;5805;51.542;7.230;2023-07-28T00:42:26;19.40;99.90
11497;DHT22;5805;51.542;7.230;2023-07-28T00:44:52;19.30;99.90
11497;DHT22;5805;51.542;7.230;2023-07-28T00:47:18;19.30;99.90
11497;DHT22;5805;51.542;7.230;2023-07-28T00:49:43;19.30;99.90
11497;DHT22;5805;51.542;7.230;2023-07-28T00:52:10;19.40;99.90
11497;DHT22;5805;51.542;7.230;2023-07-28T00:54:36;19.40;99.90
11497;DHT22;5805;51.542;7.230;2023-07-28T00:57:02;19.40;99.90
11497;DHT22;5805;51.542;7.230;2023-07-28T00:59:28;19.40;99.90
11497;DHT22;5805;51.542;7.230;2023-07-28T01:01:54;19.40;99.90
11497;DHT22;5805;51.542;7.230;2023-07-28T01:04:20;19.40;99.90
11497;DHT22;5805;51.542;7.230;2023-07-28T01:06:50;19.40;99.90
11497;DHT22;5805;51.542;7.230;2023-07-28T01:09:22;19.40;99.90
11497;DHT22;5805;51.542;7.230;2023-07-28T01:11:53;19.40;99.90
11497;DHT22;5805;51.542;7.230;2023-07-28T01:14:19;19.40;99.90
11497;DHT22;5805;51.542;7.230;2023-07-28T01:16:44;19.40;99.90
11497;DHT22;5805;51.542;7.230;2023-07-28T01:19:12;19.40;99.90
11497;DHT22;5805;51.542;7.230;2023-07-28T01:21:39;19.40;99.90
11497;DHT22;5805;51.542;7.230;2023-07-28T01:24:11;19.40;99.90
11497;DHT22;5805;51.542;7.230;2023-07-28T01:26:41;19.40;99.90
11497;DHT22;5805;51.542;7.230;2023-07-28T01:29:07;19.40;99.90
11497;DHT22;5805;51.542;7.230;2023-07-28T01:31:33;19.40;99.90
11497;DHT22;5805;51.542;7.230;2023-07-28T01:33:59;19.40;99.90
11497;DHT22;5805;51.542;7.230;2023-07-28T01:36:24;19.40;99.90
11497;DHT22;5805;51.542;7.230;2023-07-28T01:38:50;19.40;99.90
11497;DHT22;5805;51.542;7.230;2023-07-28T01:41:16;19.40;99.90
11497;DHT22;5805;51.542;7.230;2023-07-28T01:43:43;19.40;99.90
11497;DHT22;5805;51.542;7.230;2023-07-28T01:46:09;19.40;99.90
11497;DHT22;5805;51.542;7.230;2023-07-28T01:48:34;19.40;99.90
11497;DHT22;5805;51.542;7.230;2023-07-28T01:51:00;19.40;99.90
11497;DHT22;5805;51.542;7.230;2023-07-28T01:53:26;19.40;99.90
11497;DHT22;5805;51.542;7.230;2023-07-28T01:55:51;19.40;99.90
11497;DHT22;5805;51.542;7.230;2023-07-28T01:58:17;19.40;99.90
11497;DHT22;5805;51.542;7.230;2023-07-28T02:00:44;19.40;99.90
11497;DHT22;5805;51.542;7.230;2023-07-28T02:03:10;19.40;99.90
11497;DHT22;5805;51.542;7.230;2023-07-28T02:05:35;19.40;99.90
11497;DHT22;5805;51.542;7.230;2023-07-28T02:08:01;19.50;99.90
11497;DHT22;5805;51.542;7.230;2023-07-28T02:10:28;19.50;99.90
11497;DHT22;5805;51.542;7.230;2023-07-28T02:12:53;19.50;99.90
11497;DHT22;5805;51.542;7.230;2023-07-28T02:15:19;19.50;99.90
11497;DHT22;5805;51.542;7.230;2023-07-28T02:17:46;19.50;99.90
11497;DHT22;5805;51.542;7.230;2023-07-28T02:20:12;19.50;99.90
11497;DHT22;5805;51.542;7.230;2023-07-28T02:22:38;19.50;99.90
11497;DHT22;5805;51.542;7.230;2023-07-28T02:25:04;19.50;99.90
11497;DHT22;5805;51.542;7.230;2023-07-28T02:27:29;19.50;99.90
11497;DHT22;5805;51.542;7.230;2023-07-28T02:29:55;19.50;99.90
11497;DHT22;5805;51.542;7.230;2023-07-28T02:32:21;19.50;99.90
11497;DHT22;5805;51.542;7.230;2023-07-28T02:34:48;19.50;99.90
11497;DHT22;5805;51.542;7.230;2023-07-28T02:37:14;19.50;99.90
11497;DHT22;5805;51.542;7.230;2023-07-28T02:39:40;19.50;99.90
11497;DHT22;5805;51.542;7.230;2023-07-28T02:42:06;19.50;99.90
11497;DHT22;5805;51.542;7.230;2023-07-28T02:44:31;19.50;99.90
11497;DHT22;5805;51.542;7.230;2023-07-28T02:46:57;19.50;99.90
11497;DHT22;5805;51.542;7.230;2023-07-28T02:49:23;19.50;99.90
11497;DHT22;5805;51.542;7.230;2023-07-28T02:51:50;19.50;99.90
11497;DHT22;5805;51.542;7.230;2023-07-28T02:54:15;19.50;99.90
11497;DHT22;5805;51.542;7.230;2023-07-28T02:56:41;19.60;99.90
11497;DHT22;5805;51.542;7.230;2023-07-28T02:59:07;19.60;99.90
11497;DHT22;5805;51.542;7.230;2023-07-28T03:01:32;19.60;99.90
11497;DHT22;5805;51.542;7.230;2023-07-28T03:03:58;19.70;99.90
11497;DHT22;5805;51.542;7.230;2023-07-28T03:06:24;19.60;99.90
11497;DHT22;5805;51.542;7.230;2023-07-28T03:08:51;19.70;99.90
11497;DHT22;5805;51.542;7.230;2023-07-28T03:11:17;19.70;99.90
11497;DHT22;5805;51.542;7.230;2023-07-28T03:13:42;19.60;99.90
11497;DHT22;5805;51.542;7.230;2023-07-28T03:16:08;19.70;99.90
11497;DHT22;5805;51.542;7.230;2023-07-28T03:18:34;19.60;99.90
11497;DHT22;5805;51.542;7.230;2023-07-28T03:20:59;19.60;99.90
11497;DHT22;5805;51.542;7.230;2023-07-28T03:23:25;19.60;99.90
11497;DHT22;5805;51.542;7.230;2023-07-28T03:25:52;19.60;99.90
11497;DHT22;5805;51.542;7.230;2023-07-28T03:28:18;19.60;99.90
11497;DHT22;5805;51.542;7.230;2023-07-28T03:30:43;19.60;99.90
11497;DHT22;5805;51.542;7.230;2023-07-28T03:33:09;19.60;99.90
11497;DHT22;5805;51.542;7.230;2023-07-28T03:35:35;19.60;99.90
11497;DHT22;5805;51.542;7.230;2023-07-28T03:38:00;19.60;99.90
11497;DHT22;5805;51.542;7.230;2023-07-28T03:40:26;19.60;99.90
11497;DHT22;5805;51.542;7.230;2023-07-28T03:42:53;19.60;99.90
11497;DHT22;5805;51.542;7.230;2023-07-28T03:45:19;19.50;99.90
11497;DHT22;5805;51.542;7.230;2023-07-28T03:47:44;19.50;99.90
11497;DHT22;5805;51.542;7.230;2023-07-28T03:50:10;19.50;99.90
11497;DHT22;5805;51.542;7.230;2023-07-28T03:52:36;19.50;99.90
11497;DHT22;5805;51.542;7.230;2023-07-28T03:55:01;19.60;99.90
11497;DHT22;5805;51.542;7.230;2023-07-28T03:57:27;19.50;99.90
11497;DHT22;5805;51.542;7.230;2023-07-28T03:59:54;19.50;99.90
11497;DHT22;5805;51.542;7.230;2023-07-28T04:02:20;19.50;99.90
11497;DHT22;5805;51.542;7.230;2023-07-28T04:04:45;19.50;99.90
11497;DHT22;5805;51.542;7.230;2023-07-28T04:07:11;19.60;99.90
11497;DHT22;5805;51.542;7.230;2023-07-28T04:09:37;19.50;99.90
11497;DHT22;5805;51.542;7.230;2023-07-28T04:12:03;19.60;99.90
11497;DHT22;5805;51.542;7.230;2023-07-28T04:14:29;19.60;99.90
11497;DHT22;5805;51.542;7.230;2023-07-28T04:16:56;19.60;99.90
11497;DHT22;5805;51.542;7.230;2023-07-28T04:19:22;19.60;99.90
11497;DHT22;5805;51.542;7.230;2023-07-28T04:21:47;19.60;99.90
11497;DHT22;5805;51.542;7.230;2023-07-28T04:24:13;19.60;99.90
11497;DHT22;5805;51.542;7.230;2023-07-28T04:26:38;19.60;99.90
11497;DHT22;5805;51.542;7.230;2023-07-28T04:29:04;19.60;99.90
11497;DHT22;5805;51.542;7.230;2023-07-28T04:31:30;19.60;99.90
11497;DHT22;5805;51.542;7.230;2023-07-28T04:33:57;19.60;99.90
11497;DHT22;5805;51.542;7.230;2023-07-28T04:36:23;19.70;99.90
11497;DHT22;5805;51.542;7.230;2023-07-28T04:38:48;19.70;99.90
11497;DHT22;5805;51.542;7.230;2023-07-28T04:41:14;19.70;99.90
11497;DHT22;5805;51.542;7.230;2023-07-28T04:43:40;19.80;99.90
11497;DHT22;5805;51.542;7.230;2023-07-28T04:46:05;19.80;99.90
11497;DHT22;5805;51.542;7.230;2023-07-28T04:48:31;19.80;99.90
11497;DHT22;5805;51.542;7.230;2023-07-28T04:50:58;19.90;99.90
11497;DHT22;5805;51.542;7.230;2023-07-28T04:53:24;19.90;99.90
11497;DHT22;5805;51.542;7.230;2023-07-28T04:55:49;20.00;99.90
11497;DHT22;5805;51.542;7.230;2023-07-28T04:58:15;20.00;99.90
11497;DHT22;5805;51.542;7.230;2023-07-28T05:00:41;20.00;99.90
11497;DHT22;5805;51.542;7.230;2023-07-28T05:03:06;20.10;99.90
11497;DHT22;5805;51.542;7.230;2023-07-28T05:05:32;20.10;99.90
11497;DHT22;5805;51.542;7.230;2023-07-28T05:07:59;20.20;99.90
11497;DHT22;5805;51.542;7.230;2023-07-28T05:10:25;20.20;99.90
11497;DHT22;5805;51.542;7.230;2023-07-28T05:12:50;20.20;99.90
11497;DHT22;5805;51.542;7.230;2023-07-28T05:15:17;20.20;99.90
11497;DHT22;5805;51.542;7.230;2023-07-28T05:17:43;20.20;99.90
11497;DHT22;5805;51.542;7.230;2023-07-28T05:20:09;20.20;99.90
11497;DHT22;5805;51.542;7.230;2023-07-28T05:22:35;20.40;99.90
11497;DHT22;5805;51.542;7.230;2023-07-28T05:25:02;20.40;99.90
11497;DHT22;5805;51.542;7.230;2023-07-28T05:27:28;20.50;99.90
11497;DHT22;5805;51.542;7.230;2023-07-28T05:29:54;20.50;99.90
11497;DHT22;5805;51.542;7.230;2023-07-28T05:32:19;20.60;99.90
11497;DHT22;5805;51.542;7.230;2023-07-28T05:34:45;20.60;99.90
11497;DHT22;5805;51.542;7.230;2023-07-28T05:37:11;20.60;99.90
11497;DHT22;5805;51.542;7.230;2023-07-28T05:39:36;20.60;99.90
11497;DHT22;5805;51.542;7.230;2023-07-28T05:42:03;20.70;99.90
11497;DHT22;5805;51.542;7.230;2023-07-28T05:44:29;20.80;99.90
11497;DHT22;5805;51.542;7.230;2023-07-28T05:46:55;20.90;99.90
11497;DHT22;5805;51.542;7.230;2023-07-28T05:49:21;21.00;99.90
11497;DHT22;5805;51.542;7.230;2023-07-28T05:51:46;21.20;99.90
11497;DHT22;5805;51.542;7.230;2023-07-28T05:54:12;21.30;99.90
11497;DHT22;5805;51.542;7.230;2023-07-28T05:56:38;21.30;99.90
11497;DHT22;5805;51.542;7.230;2023-07-28T05:59:05;21.30;99.90
11497;DHT22;5805;51.542;7.230;2023-07-28T06:01:30;21.50;99.90
11497;DHT22;5805;51.542;7.230;2023-07-28T06:03:56;21.70;99.90
11497;DHT22;5805;51.542;7.230;2023-07-28T06:06:22;21.80;99.90
11497;DHT22;5805;51.542;7.230;2023-07-28T06:08:47;21.80;99.90
11497;DHT22;5805;51.542;7.230;2023-07-28T06:11:13;21.80;99.90
11497;DHT22;5805;51.542;7.230;2023-07-28T06:13:39;21.80;99.90
11497;DHT22;5805;51.542;7.230;2023-07-28T06:16:06;21.90;99.90
11497;DHT22;5805;51.542;7.230;2023-07-28T06:18:31;21.90;99.90
11497;DHT22;5805;51.542;7.230;2023-07-28T06:20:57;21.90;99.90
11497;DHT22;5805;51.542;7.230;2023-07-28T06:23:23;21.80;99.90
11497;DHT22;5805;51.542;7.230;2023-07-28T06:25:48;21.80;99.90
11497;DHT22;5805;51.542;7.230;2023-07-28T06:28:14;21.70;99.90
11497;DHT22;5805;51.542;7.230;2023-07-28T06:30:40;21.60;99.90
11497;DHT22;5805;51.542;7.230;2023-07-28T06:33:07;21.60;99.90
11497;DHT22;5805;51.542;7.230;2023-07-28T06:35:33;21.50;99.90
11497;DHT22;5805;51.542;7.230;2023-07-28T06:38:00;21.50;99.90
11497;DHT22;5805;51.542;7.230;2023-07-28T06:40:25;21.50;99.90
11497;DHT22;5805;51.542;7.230;2023-07-28T06:42:51;21.50;99.90
11497;DHT22;5805;51.542;7.230;2023-07-28T06:45:17;21.60;99.90
11497;DHT22;5805;51.542;7.230;2023-07-28T06:47:43;21.60;99.90
11497;DHT22;5805;51.542;7.230;2023-07-28T06:50:11;21.60;99.90
11497;DHT22;5805;51.542;7.230;2023-07-28T06:52:36;21.60;99.90
11497;DHT22;5805;51.542;7.230;2023-07-28T06:55:02;21.70;99.90
11497;DHT22;5805;51.542;7.230;2023-07-28T06:57:28;21.80;99.90
11497;DHT22;5805;51.542;7.230;2023-07-28T06:59:54;22.00;99.90
11497;DHT22;5805;51.542;7.230;2023-07-28T07:02:19;22.30;99.90
11497;DHT22;5805;51.542;7.230;2023-07-28T07:04:45;22.60;99.90
11497;DHT22;5805;51.542;7.230;2023-07-28T07:07:12;22.80;99.90
11497;DHT22;5805;51.542;7.230;2023-07-28T07:09:38;23.00;99.90
11497;DHT22;5805;51.542;7.230;2023-07-28T07:12:04;22.90;99.90
11497;DHT22;5805;51.542;7.230;2023-07-28T07:14:30;23.00;99.90
11497;DHT22;5805;51.542;7.230;2023-07-28T07:16:55;22.90;99.90
11497;DHT22;5805;51.542;7.230;2023-07-28T07:19:21;23.00;99.90
11497;DHT22;5805;51.542;7.230;2023-07-28T07:21:47;23.00;99.90
11497;DHT22;5805;51.542;7.230;2023-07-28T07:24:14;23.00;99.90
11497;DHT22;5805;51.542;7.230;2023-07-28T07:26:39;23.10;99.90
11497;DHT22;5805;51.542;7.230;2023-07-28T07:29:05;23.10;99.90
11497;DHT22;5805;51.542;7.230;2023-07-28T07:31:31;23.30;99.90
11497;DHT22;5805;51.542;7.230;2023-07-28T07:33:56;23.30;99.90
11497;DHT22;5805;51.542;7.230;2023-07-28T07:36:22;23.20;99.90
11497;DHT22;5805;51.542;7.230;2023-07-28T07:38:48;23.30;99.90
11497;DHT22;5805;51.542;7.230;2023-07-28T07:41:15;23.40;99.90
11497;DHT22;5805;51.542;7.230;2023-07-28T07:43:41;23.70;99.90
11497;DHT22;5805;51.542;7.230;2023-07-28T07:46:07;23.80;99.90
11497;DHT22;5805;51.542;7.230;2023-07-28T07:48:32;23.70;99.90
11497;DHT22;5805;51.542;7.230;2023-07-28T07:50:58;23.60;99.90
11497;DHT22;5805;51.542;7.230;2023-07-28T07:53:24;23.50;99.90
11497;DHT22;5805;51.542;7.230;2023-07-28T07:55:49;23.40;99.90
11497;DHT22;5805;51.542;7.230;2023-07-28T07:58:16;23.40;99.90
11497;DHT22;5805;51.542;7.230;2023-07-28T08:00:42;23.40;99.90
11497;DHT22;5805;51.542;7.230;2023-07-28T08:03:08;23.40;99.90
11497;DHT22;5805;51.542;7.230;2023-07-28T08:05:33;23.30;99.90
11497;DHT22;5805;51.542;7.230;2023-07-28T08:07:59;23.40;99.90
11497;DHT22;5805;51.542;7.230;2023-07-28T08:10:25;23.50;99.90
11497;DHT22;5805;51.542;7.230;2023-07-28T08:12:50;23.60;99.90
11497;DHT22;5805;51.542;7.230;2023-07-28T08:15:18;23.70;99.90
11497;DHT22;5805;51.542;7.230;2023-07-28T08:17:43;23.70;99.90
11497;DHT22;5805;51.542;7.230;2023-07-28T08:20:09;23.90;99.90
11497;DHT22;5805;51.542;7.230;2023-07-28T08:22:35;24.10;99.90
11497;DHT22;5805;51.542;7.230;2023-07-28T08:25:00;24.30;99.90
11497;DHT22;5805;51.542;7.230;2023-07-28T08:27:26;24.40;99.90
11497;DHT22;5805;51.542;7.230;2023-07-28T08:29:52;24.30;99.90
11497;DHT22;5805;51.542;7.230;2023-07-28T08:32:19;24.30;99.90
11497;DHT22;5805;51.542;7.230;2023-07-28T08:34:44;24.10;99.90
11497;DHT22;5805;51.542;7.230;2023-07-28T08:37:10;23.90;99.90
11497;DHT22;5805;51.542;7.230;2023-07-28T08:39:36;23.70;99.90
11497;DHT22;5805;51.542;7.230;2023-07-28T08:42:03;23.60;99.90
11497;DHT22;5805;51.542;7.230;2023-07-28T08:44:30;23.60;99.90
11497;DHT22;5805;51.542;7.230;2023-07-28T08:46:56;23.50;99.90
11497;DHT22;5805;51.542;7.230;2023-07-28T08:49:23;23.40;99.90
11497;DHT22;5805;51.542;7.230;2023-07-28T08:51:49;23.30;99.90
11497;DHT22;5805;51.542;7.230;2023-07-28T08:54:15;23.30;99.90
11497;DHT22;5805;51.542;7.230;2023-07-28T08:56:41;23.30;99.90
11497;DHT22;5805;51.542;7.230;2023-07-28T08:59:07;23.20;99.90
11497;DHT22;5805;51.542;7.230;2023-07-28T09:01:39;23.20;99.90
11497;DHT22;5805;51.542;7.230;2023-07-28T09:04:09;23.30;99.90
11497;DHT22;5805;51.542;7.230;2023-07-28T09:06:36;23.50;99.90
11497;DHT22;5805;51.542;7.230;2023-07-28T09:09:02;23.60;99.90
11497;DHT22;5805;51.542;7.230;2023-07-28T09:11:31;23.80;99.90
11497;DHT22;5805;51.542;7.230;2023-07-28T09:14:00;23.90;99.90
11497;DHT22;5805;51.542;7.230;2023-07-28T09:16:26;24.00;99.90
11497;DHT22;5805;51.542;7.230;2023-07-28T09:19:04;24.30;99.90
11497;DHT22;5805;51.542;7.230;2023-07-28T09:21:29;24.70;99.90
11497;DHT22;5805;51.542;7.230;2023-07-28T09:23:59;25.00;99.90
11497;DHT22;5805;51.542;7.230;2023-07-28T09:26:25;25.20;99.90
11497;DHT22;5805;51.542;7.230;2023-07-28T09:29:01;25.40;99.90
11497;DHT22;5805;51.542;7.230;2023-07-28T09:31:35;25.50;99.90
11497;DHT22;5805;51.542;7.230;2023-07-28T09:34:01;25.50;99.90
11497;DHT22;5805;51.542;7.230;2023-07-28T09:36:27;25.50;99.90
11497;DHT22;5805;51.542;7.230;2023-07-28T09:38:53;25.50;99.90
11497;DHT22;5805;51.542;7.230;2023-07-28T09:41:21;25.50;99.90
11497;DHT22;5805;51.542;7.230;2023-07-28T09:43:47;25.50;99.90
11497;DHT22;5805;51.542;7.230;2023-07-28T09:46:14;25.70;99.90
11497;DHT22;5805;51.542;7.230;2023-07-28T09:48:45;26.00;99.90
11497;DHT22;5805;51.542;7.230;2023-07-28T09:51:13;26.20;99.90
11497;DHT22;5805;51.542;7.230;2023-07-28T09:53:45;26.30;99.90
11497;DHT22;5805;51.542;7.230;2023-07-28T09:56:14;26.20;99.90
11497;DHT22;5805;51.542;7.230;2023-07-28T09:58:44;26.20;99.90
11497;DHT22;5805;51.542;7.230;2023-07-28T10:01:12;26.40;99.90
11497;DHT22;5805;51.542;7.230;2023-07-28T10:03:38;26.50;99.90
11497;DHT22;5805;51.542;7.230;2023-07-28T10:06:04;26.60;99.90
11497;DHT22;5805;51.542;7.230;2023-07-28T10:08:30;26.70;99.90
11497;DHT22;5805;51.542;7.230;2023-07-28T10:10:56;27.00;99.90
11497;DHT22;5805;51.542;7.230;2023-07-28T10:13:22;27.30;99.90
11497;DHT22;5805;51.542;7.230;2023-07-28T10:15:50;28.10;99.90
11497;DHT22;5805;51.542;7.230;2023-07-28T10:18:15;27.20;99.90
11497;DHT22;5805;51.542;7.230;2023-07-28T10:20:43;27.20;99.90
11497;DHT22;5805;51.542;7.230;2023-07-28T10:23:12;27.10;99.90
11497;DHT22;5805;51.542;7.230;2023-07-28T10:25:39;27.00;99.90
11497;DHT22;5805;51.542;7.230;2023-07-28T10:28:06;26.70;99.90
11497;DHT22;5805;51.542;7.230;2023-07-28T10:30:35;26.50;99.90
11497;DHT22;5805;51.542;7.230;2023-07-28T10:33:03;26.50;99.90
11497;DHT22;5805;51.542;7.230;2023-07-28T10:35:28;26.60;99.90
11497;DHT22;5805;51.542;7.230;2023-07-28T10:37:54;26.60;99.90
11497;DHT22;5805;51.542;7.230;2023-07-28T10:40:27;26.50;99.90
11497;DHT22;5805;51.542;7.230;2023-07-28T10:42:53;26.20;99.90
11497;DHT22;5805;51.542;7.230;2023-07-28T10:45:19;26.10;99.90
11497;DHT22;5805;51.542;7.230;2023-07-28T10:47:45;26.00;99.90
11497;DHT22;5805;51.542;7.230;2023-07-28T10:50:13;26.00;99.90
11497;DHT22;5805;51.542;7.230;2023-07-28T10:52:39;26.00;99.90
11497;DHT22;5805;51.542;7.230;2023-07-28T10:55:06;25.70;99.90
11497;DHT22;5805;51.542;7.230;2023-07-28T10:57:36;25.50;99.90
11497;DHT22;5805;51.542;7.230;2023-07-28T11:00:03;25.40;99.90
11497;DHT22;5805;51.542;7.230;2023-07-28T11:02:28;25.30;99.90
11497;DHT22;5805;51.542;7.230;2023-07-28T11:04:54;25.40;99.90
11497;DHT22;5805;51.542;7.230;2023-07-28T11:07:21;25.60;99.90
11497;DHT22;5805;51.542;7.230;2023-07-28T11:09:47;26.10;99.90
11497;DHT22;5805;51.542;7.230;2023-07-28T11:12:13;26.40;99.90
11497;DHT22;5805;51.542;7.230;2023-07-28T11:14:39;26.60;99.90
11497;DHT22;5805;51.542;7.230;2023-07-28T11:17:05;26.60;99.90
11497;DHT22;5805;51.542;7.230;2023-07-28T11:19:31;26.70;99.90
11497;DHT22;5805;51.542;7.230;2023-07-28T11:21:58;26.80;99.90
11497;DHT22;5805;51.542;7.230;2023-07-28T11:24:25;26.80;99.90
11497;DHT22;5805;51.542;7.230;2023-07-28T11:26:51;26.90;99.90
11497;DHT22;5805;51.542;7.230;2023-07-28T11:29:18;26.90;99.90
11497;DHT22;5805;51.542;7.230;2023-07-28T11:31:44;27.10;99.90
11497;DHT22;5805;51.542;7.230;2023-07-28T11:34:13;27.30;99.90
11497;DHT22;5805;51.542;7.230;2023-07-28T11:36:39;27.40;99.90
11497;DHT22;5805;51.542;7.230;2023-07-28T11:39:04;27.30;99.90
11497;DHT22;5805;51.542;7.230;2023-07-28T11:41:32;27.20;99.90
11497;DHT22;5805;51.542;7.230;2023-07-28T11:43:58;27.30;99.90
11497;DHT22;5805;51.542;7.230;2023-07-28T11:46:38;27.50;99.90
11497;DHT22;5805;51.542;7.230;2023-07-28T11:49:09;27.70;99.90
11497;DHT22;5805;51.542;7.230;2023-07-28T11:51:38;27.80;99.90
11497;DHT22;5805;51.542;7.230;2023-07-28T11:54:04;27.80;99.90
11497;DHT22;5805;51.542;7.230;2023-07-28T11:56:31;27.80;99.90
11497;DHT22;5805;51.542;7.230;2023-07-28T11:58:57;27.80;99.90
11497;DHT22;5805;51.542;7.230;2023-07-28T12:01:23;27.70;99.90
11497;DHT22;5805;51.542;7.230;2023-07-28T12:03:49;27.60;99.90
11497;DHT22;5805;51.542;7.230;2023-07-28T12:06:15;27.60;99.90
11497;DHT22;5805;51.542;7.230;2023-07-28T12:08:40;27.70;99.90
11497;DHT22;5805;51.542;7.230;2023-07-28T12:11:11;27.80;99.90
11497;DHT22;5805;51.542;7.230;2023-07-28T12:13:48;27.80;99.90
11497;DHT22;5805;51.542;7.230;2023-07-28T12:16:37;27.80;99.90
11497;DHT22;5805;51.542;7.230;2023-07-28T12:19:03;27.70;99.90
11497;DHT22;5805;51.542;7.230;2023-07-28T12:21:28;27.40;99.90
11497;DHT22;5805;51.542;7.230;2023-07-28T12:23:54;27.20;99.90
11497;DHT22;5805;51.542;7.230;2023-07-28T12:26:20;26.90;99.90
11497;DHT22;5805;51.542;7.230;2023-07-28T12:28:45;26.70;99.90
11497;DHT22;5805;51.542;7.230;2023-07-28T12:31:12;26.40;99.90
11497;DHT22;5805;51.542;7.230;2023-07-28T12:33:38;26.10;99.90
11497;DHT22;5805;51.542;7.230;2023-07-28T12:36:04;25.90;99.90
11497;DHT22;5805;51.542;7.230;2023-07-28T12:38:30;25.70;99.90
11497;DHT22;5805;51.542;7.230;2023-07-28T12:40:55;25.70;99.90
11497;DHT22;5805;51.542;7.230;2023-07-28T12:43:21;25.90;99.90
11497;DHT22;5805;51.542;7.230;2023-07-28T12:45:47;26.00;99.90
11497;DHT22;5805;51.542;7.230;2023-07-28T12:48:14;26.00;99.90
11497;DHT22;5805;51.542;7.230;2023-07-28T12:50:39;25.90;99.90
11497;DHT22;5805;51.542;7.230;2023-07-28T12:53:05;25.90;99.90
11497;DHT22;5805;51.542;7.230;2023-07-28T12:55:30;25.70;99.90
11497;DHT22;5805;51.542;7.230;2023-07-28T12:57:56;25.50;99.90
11497;DHT22;5805;51.542;7.230;2023-07-28T13:00:22;25.50;99.90
11497;DHT22;5805;51.542;7.230;2023-07-28T13:02:47;25.50;99.90
11497;DHT22;5805;51.542;7.230;2023-07-28T13:05:14;25.40;99.90
11497;DHT22;5805;51.542;7.230;2023-07-28T13:07:40;25.30;99.90
11497;DHT22;5805;51.542;7.230;2023-07-28T13:10:08;25.30;99.90
11497;DHT22;5805;51.542;7.230;2023-07-28T13:12:33;25.30;99.90
11497;DHT22;5805;51.542;7.230;2023-07-28T13:14:59;25.40;99.90
11497;DHT22;5805;51.542;7.230;2023-07-28T13:17:25;25.40;99.90
11497;DHT22;5805;51.542;7.230;2023-07-28T13:19:50;25.50;99.90
11497;DHT22;5805;51.542;7.230;2023-07-28T13:22:17;25.50;99.90
11497;DHT22;5805;51.542;7.230;2023-07-28T13:24:43;25.50;99.90
11497;DHT22;5805;51.542;7.230;2023-07-28T13:27:09;25.50;99.90
11497;DHT22;5805;51.542;7.230;2023-07-28T13:29:35;25.50;99.90
11497;DHT22;5805;51.542;7.230;2023-07-28T13:32:01;25.50;99.90
11497;DHT22;5805;51.542;7.230;2023-07-28T13:34:27;25.70;99.90
11497;DHT22;5805;51.542;7.230;2023-07-28T13:36:52;25.80;99.90
11497;DHT22;5805;51.542;7.230;2023-07-28T13:39:20;26.00;99.90
11497;DHT22;5805;51.542;7.230;2023-07-28T13:41:45;26.10;99.90
11497;DHT22;5805;51.542;7.230;2023-07-28T13:44:11;26.10;99.90
11497;DHT22;5805;51.542;7.230;2023-07-28T13:46:36;26.20;99.90
11497;DHT22;5805;51.542;7.230;2023-07-28T13:49:02;26.30;99.90
11497;DHT22;5805;51.542;7.230;2023-07-28T13:51:28;26.40;99.90
11497;DHT22;5805;51.542;7.230;2023-07-28T13:53:54;26.50;99.90
11497;DHT22;5805;51.542;7.230;2023-07-28T13:56:21;26.60;99.90
11497;DHT22;5805;51.542;7.230;2023-07-28T13:58:47;26.80;99.90
11497;DHT22;5805;51.542;7.230;2023-07-28T14:01:12;26.70;99.90
11497;DHT22;5805;51.542;7.230;2023-07-28T14:03:38;26.60;99.90
11497;DHT22;5805;51.542;7.230;2023-07-28T14:06:04;26.50;99.90
11497;DHT22;5805;51.542;7.230;2023-07-28T14:08:29;26.30;99.90
11497;DHT22;5805;51.542;7.230;2023-07-28T14:10:55;26.20;99.90
11497;DHT22;5805;51.542;7.230;2023-07-28T14:13:22;26.10;99.90
11497;DHT22;5805;51.542;7.230;2023-07-28T14:15:50;26.00;99.90
11497;DHT22;5805;51.542;7.230;2023-07-28T14:18:15;26.00;99.90
11497;DHT22;5805;51.542;7.230;2023-07-28T14:20:41;26.00;99.90
11497;DHT22;5805;51.542;7.230;2023-07-28T14:23:21;25.90;99.90
11497;DHT22;5805;51.542;7.230;2023-07-28T14:25:47;25.90;99.90
11497;DHT22;5805;51.542;7.230;2023-07-28T14:28:12;25.90;99.90
11497;DHT22;5805;51.542;7.230;2023-07-28T14:30:39;26.00;99.90
11497;DHT22;5805;51.542;7.230;2023-07-28T14:33:05;26.00;99.90
11497;DHT22;5805;51.542;7.230;2023-07-28T14:35:31;26.10;99.90
11497;DHT22;5805;51.542;7.230;2023-07-28T14:37:56;26.10;99.90
11497;DHT22;5805;51.542;7.230;2023-07-28T14:40:22;26.10;99.90
11497;DHT22;5805;51.542;7.230;2023-07-28T14:42:47;26.10;99.90
11497;DHT22;5805;51.542;7.230;2023-07-28T14:45:13;26.10;99.90
11497;DHT22;5805;51.542;7.230;2023-07-28T14:47:40;26.00;99.90
11497;DHT22;5805;51.542;7.230;2023-07-28T14:50:06;26.00;99.90
11497;DHT22;5805;51.542;7.230;2023-07-28T14:52:32;26.00;99.90
11497;DHT22;5805;51.542;7.230;2023-07-28T14:54:58;26.00;99.90
11497;DHT22;5805;51.542;7.230;2023-07-28T14:57:23;26.00;99.90
11497;DHT22;5805;51.542;7.230;2023-07-28T14:59:49;26.10;99.90
11497;DHT22;5805;51.542;7.230;2023-07-28T15:02:15;26.10;99.90
11497;DHT22;5805;51.542;7.230;2023-07-28T15:04:42;26.20;99.90
11497;DHT22;5805;51.542;7.230;2023-07-28T15:07:07;26.30;99.90
11497;DHT22;5805;51.542;7.230;2023-07-28T15:09:33;26.40;99.90
11497;DHT22;5805;51.542;7.230;2023-07-28T15:11:59;26.30;99.90
11497;DHT22;5805;51.542;7.230;2023-07-28T15:14:24;26.20;99.90
11497;DHT22;5805;51.542;7.230;2023-07-28T15:16:50;26.20;99.90
11497;DHT22;5805;51.542;7.230;2023-07-28T15:19:16;26.10;99.90
11497;DHT22;5805;51.542;7.230;2023-07-28T15:21:43;26.00;99.90
11497;DHT22;5805;51.542;7.230;2023-07-28T15:24:08;25.90;99.90
11497;DHT22;5805;51.542;7.230;2023-07-28T15:26:34;25.80;99.90
11497;DHT22;5805;51.542;7.230;2023-07-28T15:29:00;25.70;99.90
11497;DHT22;5805;51.542;7.230;2023-07-28T15:31:25;25.60;99.90
11497;DHT22;5805;51.542;7.230;2023-07-28T15:33:51;25.60;99.90
11497;DHT22;5805;51.542;7.230;2023-07-28T15:36:17;25.60;99.90
11497;DHT22;5805;51.542;7.230;2023-07-28T15:38:44;25.70;99.90